Astrid Conroy — ZGAQ5 — position and weather

sailwx.info

Track history (hours):
 
Tides and Currents Weather Stations Pressure Air Temp Water Temp Dewpoint Dewpoint Depression Visibility Wind Speed Wind Dir Waves Ship Positions

Astrid Conroy

Last reported at 2015-Aug-27 12:28 UTC. Time now 2015-Aug-29 07:23 UTC.
Position N 40°53' E 009°41'.

Length 58 m; draft 3.5 m.

Type: Pleasure craft. MMSI: 319031500.

Date/timePositionNaut miles runAvg speedWind from/ knotsBaromVisibWave heightAir tempDewpointWater temp
2015-Aug-27 12:28N 40°53' E 009°41'0 0.0
2015-Aug-27 09:18N 40°53' E 009°41'  
2015-Aug-23 02:09N 40°38' E 013°43'711.1
2015-Aug-23 01:33N 40°35' E 013°51'2210.9
2015-Aug-22 23:32N 40°32' E 014°20'8 0.3
2015-Aug-21 19:22N 40°36' E 014°29'1314.7
2015-Aug-21 18:28N 40°31' E 014°13'1 0.1
2015-Aug-21 06:07N 40°32' E 014°12'814.4
2015-Aug-21 05:33N 40°33' E 014°01'2115.5
2015-Aug-21 04:11N 40°39' E 013°34'1215.4
2015-Aug-21 03:26N 40°42' E 013°20'16210.9
2015-Aug-20 12:31N 42°40' E 010°50'72 2.0
2015-Aug-19 01:08N 43°32' E 009°41'915.4
2015-Aug-19 00:33N 43°34' E 009°29'1615.7
2015-Aug-18 23:33N 43°37' E 009°08'1515.3
2015-Aug-18 22:33N 43°39' E 008°47'4514.8
2015-Aug-18 19:30N 43°44' E 007°45'1614.2
2015-Aug-18 18:23N 43°39' E 007°23'1214.6
2015-Aug-18 17:33N 43°32' E 007°11'1414.4
2015-Aug-18 16:33N 43°22' E 006°57'1414.4
2015-Aug-18 15:34N 43°13' E 006°40'0 0.3
2015-Aug-18 14:32N 43°13' E 006°40'0 0.0
2015-Aug-18 13:32N 43°13' E 006°40'0 0.0
2015-Aug-18 11:29N 43°13' E 006°40'0 0.0
2015-Aug-18 08:29N 43°13' E 006°40'0 0.0
2015-Aug-18 07:11N 43°13' E 006°40'0 0.0
2015-Aug-18 06:29N 43°13' E 006°40'0 0.0
2015-Aug-18 05:29N 43°13' E 006°40'0 0.0
2015-Aug-18 04:32N 43°13' E 006°40'0 0.0
2015-Aug-18 04:11N 43°13' E 006°40'0 0.0
2015-Aug-18 04:08N 43°13' E 006°40'0 0.0
2015-Aug-18 03:32N 43°13' E 006°40'0 0.0
2015-Aug-18 02:23N 43°13' E 006°40'0 0.0
2015-Aug-18 01:23N 43°13' E 006°40'0 0.0
2015-Aug-18 00:17N 43°13' E 006°40'0 0.0
2015-Aug-17 23:29N 43°13' E 006°40'0 0.0
2015-Aug-17 22:23N 43°13' E 006°40'0 0.0
2015-Aug-17 21:11N 43°13' E 006°40'0 0.0
2015-Aug-17 20:29N 43°13' E 006°40'0 0.0
2015-Aug-17 18:29N 43°13' E 006°40'0 0.0
2015-Aug-17 17:23N 43°13' E 006°40'0 0.0
2015-Aug-17 15:29N 43°13' E 006°40'0 0.0
2015-Aug-17 14:29N 43°13' E 006°40'0 0.0
2015-Aug-17 13:17N 43°13' E 006°40'0 0.0
2015-Aug-17 12:32N 43°13' E 006°40'  
Track history (hours):
 
Tides and Currents Weather Stations Pressure Air Temp Water Temp Dewpoint Dewpoint Depression Visibility Wind Speed Wind Dir Waves Ship Positions

Astrid Conroy

Last reported at 2015-Aug-27 12:28 UTC. Time now 2015-Aug-29 07:23 UTC.
Position N 40°53' E 009°41'.

Length 58 m; draft 3.5 m.

Type: Pleasure craft. MMSI: 319031500.

Date/timePositionNaut miles runAvg speedWind from/ knotsBaromVisibWave heightAir tempDewpointWater temp
2015-Aug-27 12:28N 40°53' E 009°41'0 0.0
2015-Aug-27 09:18N 40°53' E 009°41'  
2015-Aug-23 02:09N 40°38' E 013°43'711.1
2015-Aug-23 01:33N 40°35' E 013°51'2210.9
2015-Aug-22 23:32N 40°32' E 014°20'8 0.3
2015-Aug-21 19:22N 40°36' E 014°29'1314.7
2015-Aug-21 18:28N 40°31' E 014°13'1 0.1
2015-Aug-21 06:07N 40°32' E 014°12'814.4
2015-Aug-21 05:33N 40°33' E 014°01'2115.5
2015-Aug-21 04:11N 40°39' E 013°34'1215.4
2015-Aug-21 03:26N 40°42' E 013°20'16210.9
2015-Aug-20 12:31N 42°40' E 010°50'72 2.0
2015-Aug-19 01:08N 43°32' E 009°41'915.4
2015-Aug-19 00:33N 43°34' E 009°29'1615.7
2015-Aug-18 23:33N 43°37' E 009°08'1515.3
2015-Aug-18 22:33N 43°39' E 008°47'4514.8
2015-Aug-18 19:30N 43°44' E 007°45'1614.2
2015-Aug-18 18:23N 43°39' E 007°23'1214.6
2015-Aug-18 17:33N 43°32' E 007°11'1414.4
2015-Aug-18 16:33N 43°22' E 006°57'1414.4
2015-Aug-18 15:34N 43°13' E 006°40'0 0.3
2015-Aug-18 14:32N 43°13' E 006°40'0 0.0
2015-Aug-18 13:32N 43°13' E 006°40'0 0.0
2015-Aug-18 11:29N 43°13' E 006°40'0 0.0
2015-Aug-18 08:29N 43°13' E 006°40'0 0.0
2015-Aug-18 07:11N 43°13' E 006°40'0 0.0
2015-Aug-18 06:29N 43°13' E 006°40'0 0.0
2015-Aug-18 05:29N 43°13' E 006°40'0 0.0
2015-Aug-18 04:32N 43°13' E 006°40'0 0.0
2015-Aug-18 04:11N 43°13' E 006°40'0 0.0
2015-Aug-18 04:08N 43°13' E 006°40'0 0.0
2015-Aug-18 03:32N 43°13' E 006°40'0 0.0
2015-Aug-18 02:23N 43°13' E 006°40'0 0.0
2015-Aug-18 01:23N 43°13' E 006°40'0 0.0
2015-Aug-18 00:17N 43°13' E 006°40'0 0.0
2015-Aug-17 23:29N 43°13' E 006°40'0 0.0
2015-Aug-17 22:23N 43°13' E 006°40'0 0.0
2015-Aug-17 21:11N 43°13' E 006°40'0 0.0
2015-Aug-17 20:29N 43°13' E 006°40'0 0.0
2015-Aug-17 18:29N 43°13' E 006°40'0 0.0
2015-Aug-17 17:23N 43°13' E 006°40'0 0.0
2015-Aug-17 15:29N 43°13' E 006°40'0 0.0
2015-Aug-17 14:29N 43°13' E 006°40'0 0.0
2015-Aug-17 13:17N 43°13' E 006°40'0 0.0
2015-Aug-17 12:32N 43°13' E 006°40'  

Dump ship's entire track history